sensor_id;sensor_type;location;lat;lon;timestamp;pressure;altitude;pressure_sealevel;temperature;humidity
46614;BME280;32338;50.430;6.806;2023-07-29T00:01:30;67216.69;;;16.47;100.00
46614;BME280;32338;50.430;6.806;2023-07-29T00:03:56;67234.84;;;16.64;100.00
46614;BME280;32338;50.430;6.806;2023-07-29T00:06:23;67225.59;;;16.53;100.00
46614;BME280;32338;50.430;6.806;2023-07-29T00:08:50;67222.34;;;16.52;100.00
46614;BME280;32338;50.430;6.806;2023-07-29T00:11:16;67225.00;;;16.52;100.00
46614;BME280;32338;50.430;6.806;2023-07-29T00:13:43;67225.59;;;16.53;100.00
46614;BME280;32338;50.430;6.806;2023-07-29T00:16:11;67224.25;;;16.57;100.00
46614;BME280;32338;50.430;6.806;2023-07-29T00:18:38;67231.06;;;16.63;100.00
46614;BME280;32338;50.430;6.806;2023-07-29T00:21:04;67228.59;;;16.58;100.00
46614;BME280;32338;50.430;6.806;2023-07-29T00:23:31;67214.06;;;16.47;100.00
46614;BME280;32338;50.430;6.806;2023-07-29T00:25:57;67216.31;;;16.49;100.00
46614;BME280;32338;50.430;6.806;2023-07-29T00:28:24;67206.69;;;16.41;100.00
46614;BME280;32338;50.430;6.806;2023-07-29T00:30:51;67215.19;;;16.48;100.00
46614;BME280;32338;50.430;6.806;2023-07-29T00:33:18;67208.97;;;16.43;100.00
46614;BME280;32338;50.430;6.806;2023-07-29T00:35:46;67204.44;;;16.38;100.00
46614;BME280;32338;50.430;6.806;2023-07-29T00:38:12;67201.03;;;16.35;100.00
46614;BME280;32338;50.430;6.806;2023-07-29T00:40:39;67198.22;;;16.33;100.00
46614;BME280;32338;50.430;6.806;2023-07-29T00:43:05;67209.53;;;16.43;100.00
46614;BME280;32338;50.430;6.806;2023-07-29T00:45:32;67212.94;;;16.46;100.00
46614;BME280;32338;50.430;6.806;2023-07-29T00:47:59;67218.41;;;16.49;100.00
46614;BME280;32338;50.430;6.806;2023-07-29T00:50:29;67212.72;;;16.44;100.00
46614;BME280;32338;50.430;6.806;2023-07-29T00:52:57;67209.91;;;16.41;100.00
46614;BME280;32338;50.430;6.806;2023-07-29T00:55:23;67208.97;;;16.43;100.00
46614;BME280;32338;50.430;6.806;2023-07-29T00:57:50;67211.41;;;16.47;100.00
46614;BME280;32338;50.430;6.806;2023-07-29T01:00:20;67211.63;;;16.43;100.00
46614;BME280;32338;50.430;6.806;2023-07-29T01:02:47;67205.38;;;16.37;100.00
46614;BME280;32338;50.430;6.806;2023-07-29T01:05:16;67206.88;;;16.43;100.00
46614;BME280;32338;50.430;6.806;2023-07-29T01:07:49;67205.38;;;16.37;100.00
46614;BME280;32338;50.430;6.806;2023-07-29T01:10:24;67207.66;;;16.39;100.00
46614;BME280;32338;50.430;6.806;2023-07-29T01:12:54;67207.47;;;16.36;100.00
46614;BME280;32338;50.430;6.806;2023-07-29T01:15:26;67203.69;;;16.35;100.00
46614;BME280;32338;50.430;6.806;2023-07-29T01:17:57;67204.25;;;16.36;100.00
46614;BME280;32338;50.430;6.806;2023-07-29T01:20:26;67205.56;;;16.40;100.00
46614;BME280;32338;50.430;6.806;2023-07-29T01:22:55;67198.78;;;16.33;100.00
46614;BME280;32338;50.430;6.806;2023-07-29T01:25:22;67197.06;;;16.32;100.00
46614;BME280;32338;50.430;6.806;2023-07-29T01:27:50;67198.78;;;16.33;100.00
46614;BME280;32338;50.430;6.806;2023-07-29T01:30:18;67196.88;;;16.29;100.00
46614;BME280;32338;50.430;6.806;2023-07-29T01:32:53;67197.84;;;16.28;100.00
46614;BME280;32338;50.430;6.806;2023-07-29T01:35:24;67190.66;;;16.24;100.00
46614;BME280;32338;50.430;6.806;2023-07-29T01:37:56;67192.72;;;16.30;100.00
46614;BME280;32338;50.430;6.806;2023-07-29T01:40:27;67195.38;;;16.30;100.00
46614;BME280;32338;50.430;6.806;2023-07-29T01:42:54;67202.00;;;16.34;100.00
46614;BME280;32338;50.430;6.806;2023-07-29T01:45:23;67201.81;;;16.31;100.00
46614;BME280;32338;50.430;6.806;2023-07-29T01:47:50;67201.41;;;16.33;100.00
46614;BME280;32338;50.430;6.806;2023-07-29T01:50:17;67199.91;;;16.34;100.00
46614;BME280;32338;50.430;6.806;2023-07-29T01:52:44;67201.81;;;16.31;100.00
46614;BME280;32338;50.430;6.806;2023-07-29T01:55:10;67202.56;;;16.34;100.00
46614;BME280;32338;50.430;6.806;2023-07-29T01:57:38;67198.97;;;16.29;100.00
46614;BME280;32338;50.430;6.806;2023-07-29T02:00:06;67193.69;;;16.29;100.00
46614;BME280;32338;50.430;6.806;2023-07-29T02:02:33;67189.31;;;16.27;100.00
46614;BME280;32338;50.430;6.806;2023-07-29T02:04:59;67195.75;;;16.28;100.00
46614;BME280;32338;50.430;6.806;2023-07-29T02:07:26;67199.91;;;16.34;100.00
46614;BME280;32338;50.430;6.806;2023-07-29T02:09:52;67195.56;;;16.26;100.00
46614;BME280;32338;50.430;6.806;2023-07-29T02:12:19;67184.25;;;16.23;100.00
46614;BME280;32338;50.430;6.806;2023-07-29T02:14:47;67190.47;;;16.21;100.00
46614;BME280;32338;50.430;6.806;2023-07-29T02:17:14;67190.66;;;16.24;100.00
46614;BME280;32338;50.430;6.806;2023-07-29T02:19:40;67185.75;;;16.21;100.00
46614;BME280;32338;50.430;6.806;2023-07-29T02:22:07;67183.84;;;16.17;100.00
46614;BME280;32338;50.430;6.806;2023-07-29T02:24:33;67182.75;;;16.16;100.00
46614;BME280;32338;50.430;6.806;2023-07-29T02:27:00;67186.13;;;16.19;100.00
46614;BME280;32338;50.430;6.806;2023-07-29T02:29:26;67181.22;;;16.17;100.00
46614;BME280;32338;50.430;6.806;2023-07-29T02:31:54;67183.84;;;16.17;100.00
46614;BME280;32338;50.430;6.806;2023-07-29T02:34:21;67188.41;;;16.21;100.00
46614;BME280;32338;50.430;6.806;2023-07-29T02:36:47;67190.88;;;16.19;100.00
46614;BME280;32338;50.430;6.806;2023-07-29T02:39:14;67181.41;;;16.20;100.00
46614;BME280;32338;50.430;6.806;2023-07-29T02:41:40;67184.44;;;16.18;100.00
46614;BME280;32338;50.430;6.806;2023-07-29T02:44:07;67187.28;;;16.20;100.00
46614;BME280;32338;50.430;6.806;2023-07-29T02:46:33;67191.06;;;16.21;100.00
46614;BME280;32338;50.430;6.806;2023-07-29T02:49:03;67191.97;;;16.27;100.00
46614;BME280;32338;50.430;6.806;2023-07-29T02:51:30;67194.06;;;16.27;100.00
46614;BME280;32338;50.430;6.806;2023-07-29T02:53:56;67185.75;;;16.21;100.00
46614;BME280;32338;50.430;6.806;2023-07-29T02:56:23;67186.31;;;16.22;100.00
46614;BME280;32338;50.430;6.806;2023-07-29T02:58:50;67200.09;;;16.30;100.00
46614;BME280;32338;50.430;6.806;2023-07-29T03:01:17;67190.09;;;16.23;100.00
46614;BME280;32338;50.430;6.806;2023-07-29T03:03:44;67187.28;;;16.20;100.00
46614;BME280;32338;50.430;6.806;2023-07-29T03:06:14;67185.00;;;16.18;100.00
46614;BME280;32338;50.430;6.806;2023-07-29T03:08:41;67180.84;;;16.19;100.00
46614;BME280;32338;50.430;6.806;2023-07-29T03:11:09;67183.47;;;16.19;100.00
46614;BME280;32338;50.430;6.806;2023-07-29T03:13:36;67192.19;;;16.23;100.00
46614;BME280;32338;50.430;6.806;2023-07-29T03:16:07;67188.59;;;16.24;100.00
46614;BME280;32338;50.430;6.806;2023-07-29T03:18:33;67194.63;;;16.27;100.00
46614;BME280;32338;50.430;6.806;2023-07-29T03:21:00;67198.03;;;16.30;100.00
46614;BME280;32338;50.430;6.806;2023-07-29T03:23:29;67197.44;;;16.30;100.00
46614;BME280;32338;50.430;6.806;2023-07-29T03:25:56;67194.25;;;16.29;100.00
46614;BME280;32338;50.430;6.806;2023-07-29T03:28:24;67190.28;;;16.26;100.00
46614;BME280;32338;50.430;6.806;2023-07-29T03:30:51;67183.09;;;16.21;100.00
46614;BME280;32338;50.430;6.806;2023-07-29T03:33:17;67185.00;;;16.18;100.00
46614;BME280;32338;50.430;6.806;2023-07-29T03:35:44;67187.44;;;16.23;100.00
46614;BME280;32338;50.430;6.806;2023-07-29T03:38:11;67186.91;;;16.23;100.00
46614;BME280;32338;50.430;6.806;2023-07-29T03:40:39;67192.38;;;16.25;100.00
46614;BME280;32338;50.430;6.806;2023-07-29T03:43:06;67195.19;;;16.28;100.00
46614;BME280;32338;50.430;6.806;2023-07-29T03:45:33;67195.19;;;16.28;100.00
46614;BME280;32338;50.430;6.806;2023-07-29T03:48:00;67194.44;;;16.25;100.00
46614;BME280;32338;50.430;6.806;2023-07-29T03:50:28;67190.09;;;16.23;100.00
46614;BME280;32338;50.430;6.806;2023-07-29T03:52:54;67191.22;;;16.24;100.00
46614;BME280;32338;50.430;6.806;2023-07-29T03:55:21;67192.94;;;16.26;100.00
46614;BME280;32338;50.430;6.806;2023-07-29T03:57:49;67185.56;;;16.19;100.00
46614;BME280;32338;50.430;6.806;2023-07-29T04:00:16;67183.31;;;16.17;100.00
46614;BME280;32338;50.430;6.806;2023-07-29T04:02:43;67180.66;;;16.17;100.00
46614;BME280;32338;50.430;6.806;2023-07-29T04:05:11;67177.81;;;16.14;100.00
46614;BME280;32338;50.430;6.806;2023-07-29T04:07:37;67183.31;;;16.17;100.00
46614;BME280;32338;50.430;6.806;2023-07-29T04:10:06;67178.59;;;16.10;100.00
46614;BME280;32338;50.430;6.806;2023-07-29T04:12:33;67170.47;;;16.08;100.00
46614;BME280;32338;50.430;6.806;2023-07-29T04:15:01;67169.91;;;16.07;100.00
46614;BME280;32338;50.430;6.806;2023-07-29T04:17:28;67169.53;;;16.09;100.00
46614;BME280;32338;50.430;6.806;2023-07-29T04:19:54;67178.19;;;16.12;100.00
46614;BME280;32338;50.430;6.806;2023-07-29T04:22:21;67173.13;;;16.08;100.00
46614;BME280;32338;50.430;6.806;2023-07-29T04:24:47;67170.47;;;16.08;100.00
46614;BME280;32338;50.430;6.806;2023-07-29T04:27:14;67175.59;;;16.05;100.00
46614;BME280;32338;50.430;6.806;2023-07-29T04:29:40;67171.81;;;16.04;100.00
46614;BME280;32338;50.430;6.806;2023-07-29T04:32:08;67174.06;;;16.06;100.00
46614;BME280;32338;50.430;6.806;2023-07-29T04:34:35;67179.34;;;16.13;100.00
46614;BME280;32338;50.430;6.806;2023-07-29T04:37:01;67172.16;;;16.09;100.00
46614;BME280;32338;50.430;6.806;2023-07-29T04:39:28;67175.94;;;16.10;100.00
46614;BME280;32338;50.430;6.806;2023-07-29T04:41:55;67176.31;;;16.08;100.00
46614;BME280;32338;50.430;6.806;2023-07-29T04:44:22;67175.38;;;16.10;100.00
46614;BME280;32338;50.430;6.806;2023-07-29T04:46:49;67172.53;;;16.07;100.00
46614;BME280;32338;50.430;6.806;2023-07-29T04:49:17;67172.16;;;16.09;100.00
46614;BME280;32338;50.430;6.806;2023-07-29T04:51:43;67166.50;;;16.04;100.00
46614;BME280;32338;50.430;6.806;2023-07-29T04:54:10;67169.16;;;16.04;100.00
46614;BME280;32338;50.430;6.806;2023-07-29T04:56:36;67167.66;;;16.05;100.00
46614;BME280;32338;50.430;6.806;2023-07-29T04:59:03;67174.81;;;16.09;100.00
46614;BME280;32338;50.430;6.806;2023-07-29T05:01:29;67171.41;;;16.06;100.00
46614;BME280;32338;50.430;6.806;2023-07-29T05:03:56;67164.63;;;16.00;100.00
46614;BME280;32338;50.430;6.806;2023-07-29T05:06:24;67164.44;;;15.97;100.00
46614;BME280;32338;50.430;6.806;2023-07-29T05:08:51;67159.91;;;16.00;100.00
46614;BME280;32338;50.430;6.806;2023-07-29T05:11:17;67174.06;;;16.06;100.00
46614;BME280;32338;50.430;6.806;2023-07-29T05:13:44;67164.25;;;16.02;100.00
46614;BME280;32338;50.430;6.806;2023-07-29T05:16:10;67160.84;;;15.99;100.00
46614;BME280;32338;50.430;6.806;2023-07-29T05:18:37;67165.19;;;16.00;100.00
46614;BME280;32338;50.430;6.806;2023-07-29T05:21:03;67169.34;;;16.07;100.00
46614;BME280;32338;50.430;6.806;2023-07-29T05:23:31;67170.09;;;16.02;100.00
46614;BME280;32338;50.430;6.806;2023-07-29T05:25:58;67168.56;;;16.03;100.00
46614;BME280;32338;50.430;6.806;2023-07-29T05:28:24;67161.03;;;16.01;100.00
46614;BME280;32338;50.430;6.806;2023-07-29T05:30:52;67160.09;;;15.96;100.00
46614;BME280;32338;50.430;6.806;2023-07-29T05:33:18;67159.53;;;15.95;100.00
46614;BME280;32338;50.430;6.806;2023-07-29T05:35:45;67160.50;;;15.94;100.00
46614;BME280;32338;50.430;6.806;2023-07-29T05:38:12;67158.97;;;15.95;100.00
46614;BME280;32338;50.430;6.806;2023-07-29T05:40:40;67160.66;;;15.96;100.00
46614;BME280;32338;50.430;6.806;2023-07-29T05:43:07;67161.41;;;15.99;100.00
46614;BME280;32338;50.430;6.806;2023-07-29T05:45:33;67166.31;;;16.01;100.00
46614;BME280;32338;50.430;6.806;2023-07-29T05:48:00;67158.59;;;15.97;100.00
46614;BME280;32338;50.430;6.806;2023-07-29T05:50:26;67150.09;;;15.89;100.00
46614;BME280;32338;50.430;6.806;2023-07-29T05:52:53;67151.97;;;15.86;100.00
46614;BME280;32338;50.430;6.806;2023-07-29T05:55:19;67137.44;;;15.82;100.00
46614;BME280;32338;50.430;6.806;2023-07-29T05:57:47;67141.78;;;15.84;100.00
46614;BME280;32338;50.430;6.806;2023-07-29T06:00:14;67160.28;;;15.98;100.00
46614;BME280;32338;50.430;6.806;2023-07-29T06:02:41;67159.53;;;15.95;100.00
46614;BME280;32338;50.430;6.806;2023-07-29T06:05:07;67162.38;;;15.98;100.00
46614;BME280;32338;50.430;6.806;2023-07-29T06:07:34;67155.19;;;15.94;100.00
46614;BME280;32338;50.430;6.806;2023-07-29T06:10:01;67158.97;;;15.95;100.00
46614;BME280;32338;50.430;6.806;2023-07-29T06:12:27;67162.16;;;16.02;100.00
46614;BME280;32338;50.430;6.806;2023-07-29T06:14:55;67164.81;;;16.02;100.00
46614;BME280;32338;50.430;6.806;2023-07-29T06:17:22;67161.41;;;15.99;100.00
46614;BME280;32338;50.430;6.806;2023-07-29T06:19:48;67155.38;;;15.96;100.00
46614;BME280;32338;50.430;6.806;2023-07-29T06:22:15;67173.31;;;16.03;100.00
46614;BME280;32338;50.430;6.806;2023-07-29T06:24:42;67172.53;;;16.07;100.00
46614;BME280;32338;50.430;6.806;2023-07-29T06:27:08;67181.59;;;16.15;100.00
46614;BME280;32338;50.430;6.806;2023-07-29T06:29:35;67185.00;;;16.18;100.00
46614;BME280;32338;50.430;6.806;2023-07-29T06:32:03;67190.66;;;16.24;100.00
46614;BME280;32338;50.430;6.806;2023-07-29T06:34:30;67185.75;;;16.21;100.00
46614;BME280;32338;50.430;6.806;2023-07-29T06:36:56;67197.84;;;16.28;100.00
46614;BME280;32338;50.430;6.806;2023-07-29T06:39:23;67197.06;;;16.32;100.00
46614;BME280;32338;50.430;6.806;2023-07-29T06:41:49;67210.47;;;16.42;100.00
46614;BME280;32338;50.430;6.806;2023-07-29T06:44:16;67211.63;;;16.43;100.00
46614;BME280;32338;50.430;6.806;2023-07-29T06:46:42;67221.06;;;16.49;100.00
46614;BME280;32338;50.430;6.806;2023-07-29T06:49:10;67220.47;;;16.56;100.00
46614;BME280;32338;50.430;6.806;2023-07-29T06:51:37;67225.22;;;16.55;100.00
46614;BME280;32338;50.430;6.806;2023-07-29T06:54:03;67206.88;;;16.43;100.00
46614;BME280;32338;50.430;6.806;2023-07-29T06:56:30;67213.88;;;16.45;100.00
46614;BME280;32338;50.430;6.806;2023-07-29T06:58:57;67211.22;;;16.45;100.00
46614;BME280;32338;50.430;6.806;2023-07-29T07:01:23;67205.56;;;16.40;100.00
46614;BME280;32338;50.430;6.806;2023-07-29T07:03:50;67212.19;;;16.43;100.00
46614;BME280;32338;50.430;6.806;2023-07-29T07:06:21;67205.38;;;16.37;100.00
46614;BME280;32338;50.430;6.806;2023-07-29T07:08:49;67212.94;;;16.46;100.00
46614;BME280;32338;50.430;6.806;2023-07-29T07:11:16;67242.38;;;16.66;100.00
46614;BME280;32338;50.430;6.806;2023-07-29T07:13:42;67267.69;;;16.94;100.00
46614;BME280;32338;50.430;6.806;2023-07-29T07:16:09;67281.88;;;17.07;100.00
46614;BME280;32338;50.430;6.806;2023-07-29T07:18:36;67274.47;;;17.00;100.00
46614;BME280;32338;50.430;6.806;2023-07-29T07:21:02;67279.03;;;17.04;100.00
46614;BME280;32338;50.430;6.806;2023-07-29T07:23:30;67283.94;;;17.06;100.00
46614;BME280;32338;50.430;6.806;2023-07-29T07:25:57;67279.97;;;17.02;100.00
46614;BME280;32338;50.430;6.806;2023-07-29T07:28:23;67281.66;;;17.11;100.00
46614;BME280;32338;50.430;6.806;2023-07-29T07:30:51;67296.56;;;17.20;100.00
46614;BME280;32338;50.430;6.806;2023-07-29T07:33:18;67299.97;;;17.30;100.00
46614;BME280;32338;50.430;6.806;2023-07-29T07:35:44;67310.00;;;17.30;100.00
46614;BME280;32338;50.430;6.806;2023-07-29T07:38:11;67312.63;;;17.37;100.00
46614;BME280;32338;50.430;6.806;2023-07-29T07:40:39;67325.47;;;17.46;100.00
46614;BME280;32338;50.430;6.806;2023-07-29T07:43:05;67346.47;;;17.65;100.00
46614;BME280;32338;50.430;6.806;2023-07-29T07:45:32;67358.94;;;17.77;100.00
46614;BME280;32338;50.430;6.806;2023-07-29T07:47:58;67367.25;;;17.82;100.00
46614;BME280;32338;50.430;6.806;2023-07-29T07:50:25;67351.00;;;17.70;100.00
46614;BME280;32338;50.430;6.806;2023-07-29T07:52:54;67332.25;;;17.60;100.00
46614;BME280;32338;50.430;6.806;2023-07-29T07:55:21;67319.25;;;17.41;100.00
46614;BME280;32338;50.430;6.806;2023-07-29T07:57:49;67294.50;;;17.21;100.00
46614;BME280;32338;50.430;6.806;2023-07-29T08:00:16;67284.50;;;17.14;100.00
46614;BME280;32338;50.430;6.806;2023-07-29T08:02:44;67286.38;;;17.11;100.00
46614;BME280;32338;50.430;6.806;2023-07-29T08:05:11;67305.66;;;17.28;100.00
46614;BME280;32338;50.430;6.806;2023-07-29T08:07:37;67303.19;;;17.31;100.00
46614;BME280;32338;50.430;6.806;2023-07-29T08:10:05;67314.91;;;17.39;100.00
46614;BME280;32338;50.430;6.806;2023-07-29T08:12:32;67315.09;;;17.42;100.00
46614;BME280;32338;50.430;6.806;2023-07-29T08:15:00;67326.63;;;17.47;100.00
46614;BME280;32338;50.430;6.806;2023-07-29T08:17:26;67303.19;;;17.31;100.00
46614;BME280;32338;50.430;6.806;2023-07-29T08:19:53;67283.19;;;17.10;100.00
46614;BME280;32338;50.430;6.806;2023-07-29T08:22:19;67270.72;;;16.99;100.00
46614;BME280;32338;50.430;6.806;2023-07-29T08:24:46;67253.69;;;16.83;100.00
46614;BME280;32338;50.430;6.806;2023-07-29T08:27:12;67248.41;;;16.76;100.00
46614;BME280;32338;50.430;6.806;2023-07-29T08:29:41;67237.09;;;16.66;100.00
46614;BME280;32338;50.430;6.806;2023-07-29T08:32:11;67229.16;;;16.59;100.00
46614;BME280;32338;50.430;6.806;2023-07-29T08:34:38;67226.91;;;16.57;100.00
46614;BME280;32338;50.430;6.806;2023-07-29T08:37:05;67232.56;;;16.62;100.00
46614;BME280;32338;50.430;6.806;2023-07-29T08:39:31;67230.47;;;16.62;100.00
46614;BME280;32338;50.430;6.806;2023-07-29T08:42:01;67233.31;;;16.65;100.00
46614;BME280;32338;50.430;6.806;2023-07-29T08:44:35;67226.91;;;16.57;100.00
46614;BME280;32338;50.430;6.806;2023-07-29T08:47:02;67224.25;;;16.57;100.00
46614;BME280;32338;50.430;6.806;2023-07-29T08:49:31;67230.09;;;16.64;100.00
46614;BME280;32338;50.430;6.806;2023-07-29T08:51:58;67235.41;;;16.64;100.00
46614;BME280;32338;50.430;6.806;2023-07-29T08:54:25;67235.03;;;16.66;100.00
46614;BME280;32338;50.430;6.806;2023-07-29T08:56:52;67239.91;;;16.68;100.00
46614;BME280;32338;50.430;6.806;2023-07-29T08:59:19;67236.72;;;16.68;100.00
46614;BME280;32338;50.430;6.806;2023-07-29T09:01:46;67242.94;;;16.74;100.00
46614;BME280;32338;50.430;6.806;2023-07-29T09:04:13;67257.47;;;16.84;100.00
46614;BME280;32338;50.430;6.806;2023-07-29T09:06:42;67280.91;;;17.08;100.00
46614;BME280;32338;50.430;6.806;2023-07-29T09:09:09;67307.34;;;17.30;100.00
46614;BME280;32338;50.430;6.806;2023-07-29T09:11:36;67309.63;;;17.32;100.00
46614;BME280;32338;50.430;6.806;2023-07-29T09:14:02;67309.63;;;17.32;100.00
46614;BME280;32338;50.430;6.806;2023-07-29T09:16:29;67314.50;;;17.41;100.00
46614;BME280;32338;50.430;6.806;2023-07-29T09:19:01;67316.41;;;17.38;100.00
46614;BME280;32338;50.430;6.806;2023-07-29T09:21:28;67322.44;;;17.48;100.00
46614;BME280;32338;50.430;6.806;2023-07-29T09:23:56;67336.25;;;17.56;100.00
46614;BME280;32338;50.430;6.806;2023-07-29T09:26:23;67320.19;;;17.46;100.00
46614;BME280;32338;50.430;6.806;2023-07-29T09:28:52;67311.50;;;17.36;100.00
46614;BME280;32338;50.430;6.806;2023-07-29T09:31:20;67311.31;;;17.33;100.00
46614;BME280;32338;50.430;6.806;2023-07-29T09:33:46;67305.28;;;17.30;100.00
46614;BME280;32338;50.430;6.806;2023-07-29T09:36:13;67326.06;;;17.47;100.00
46614;BME280;32338;50.430;6.806;2023-07-29T09:38:40;67329.63;;;17.53;100.00
46614;BME280;32338;50.430;6.806;2023-07-29T09:41:11;67334.91;;;17.60;100.00
46614;BME280;32338;50.430;6.806;2023-07-29T09:43:39;67348.50;;;17.72;100.00
46614;BME280;32338;50.430;6.806;2023-07-29T09:46:05;67371.03;;;17.90;100.00
46614;BME280;32338;50.430;6.806;2023-07-29T09:48:33;67390.88;;;18.08;100.00
46614;BME280;32338;50.430;6.806;2023-07-29T09:51:09;67403.16;;;18.17;100.00
46614;BME280;32338;50.430;6.806;2023-07-29T09:53:39;67435.69;;;18.49;100.00
46614;BME280;32338;50.430;6.806;2023-07-29T09:56:08;67459.13;;;18.66;100.00
46614;BME280;32338;50.430;6.806;2023-07-29T09:58:34;67458.19;;;18.67;100.00
46614;BME280;32338;50.430;6.806;2023-07-29T10:01:03;67487.50;;;18.91;100.00
46614;BME280;32338;50.430;6.806;2023-07-29T10:03:31;67492.59;;;19.03;100.00
46614;BME280;32338;50.430;6.806;2023-07-29T10:05:59;67492.41;;;19.01;100.00
46614;BME280;32338;50.430;6.806;2023-07-29T10:08:27;67489.75;;;19.01;100.00
46614;BME280;32338;50.430;6.806;2023-07-29T10:10:55;67479.53;;;18.91;100.00
46614;BME280;32338;50.430;6.806;2023-07-29T10:13:24;67476.50;;;18.86;100.00
46614;BME280;32338;50.430;6.806;2023-07-29T10:15:53;67480.28;;;18.87;100.00
46614;BME280;32338;50.430;6.806;2023-07-29T10:18:21;67467.63;;;18.80;100.00
46614;BME280;32338;50.430;6.806;2023-07-29T10:20:50;67460.44;;;18.69;100.00
46614;BME280;32338;50.430;6.806;2023-07-29T10:23:17;67473.50;;;18.81;100.00
46614;BME280;32338;50.430;6.806;2023-07-29T10:25:47;67466.13;;;18.74;100.00
46614;BME280;32338;50.430;6.806;2023-07-29T10:28:17;67452.88;;;18.67;100.00
46614;BME280;32338;50.430;6.806;2023-07-29T10:30:48;67440.75;;;18.54;100.00
46614;BME280;32338;50.430;6.806;2023-07-29T10:33:14;67433.97;;;18.47;100.00
46614;BME280;32338;50.430;6.806;2023-07-29T10:35:41;67423.19;;;18.38;100.00
46614;BME280;32338;50.430;6.806;2023-07-29T10:38:08;67406.00;;;18.20;100.00
46614;BME280;32338;50.430;6.806;2023-07-29T10:40:45;67406.00;;;18.20;100.00
46614;BME280;32338;50.430;6.806;2023-07-29T10:43:15;67416.97;;;18.32;100.00
46614;BME280;32338;50.430;6.806;2023-07-29T10:45:44;67432.25;;;18.46;100.00
46614;BME280;32338;50.430;6.806;2023-07-29T10:48:28;67439.25;;;18.55;100.00
46614;BME280;32338;50.430;6.806;2023-07-29T10:51:28;67471.78;;;18.79;100.00
46614;BME280;32338;50.430;6.806;2023-07-29T10:53:56;67461.94;;;18.75;100.00
46614;BME280;32338;50.430;6.806;2023-07-29T10:56:28;67445.50;;;18.60;100.00
46614;BME280;32338;50.430;6.806;2023-07-29T10:58:56;67447.56;;;18.60;100.00
46614;BME280;32338;50.430;6.806;2023-07-29T11:01:28;67452.69;;;18.64;100.00
46614;BME280;32338;50.430;6.806;2023-07-29T11:04:22;67470.84;;;18.81;100.00
46614;BME280;32338;50.430;6.806;2023-07-29T11:10:02;67492.81;;;18.99;100.00
46614;BME280;32338;50.430;6.806;2023-07-29T11:12:37;67505.47;;;19.12;100.00
46614;BME280;32338;50.430;6.806;2023-07-29T11:15:12;67499.59;;;19.05;100.00
46614;BME280;32338;50.430;6.806;2023-07-29T11:17:39;67504.31;;;19.11;100.00
46614;BME280;32338;50.430;6.806;2023-07-29T11:20:08;67481.25;;;18.93;100.00
46614;BME280;32338;50.430;6.806;2023-07-29T11:22:36;67468.00;;;18.78;100.00
46614;BME280;32338;50.430;6.806;2023-07-29T11:25:04;67469.88;;;18.83;100.00
46614;BME280;32338;50.430;6.806;2023-07-29T11:27:30;67501.84;;;19.14;100.00
46614;BME280;32338;50.430;6.806;2023-07-29T11:29:58;67496.78;;;19.02;100.00
46614;BME280;32338;50.430;6.806;2023-07-29T11:32:25;67489.94;;;19.03;100.00
46614;BME280;32338;50.430;6.806;2023-07-29T11:34:52;67508.53;;;19.10;100.00
46614;BME280;32338;50.430;6.806;2023-07-29T11:37:20;67508.47;;;19.18;100.00
46614;BME280;32338;50.430;6.806;2023-07-29T11:39:47;67536.50;;;19.38;100.00
46614;BME280;32338;50.430;6.806;2023-07-29T11:42:14;67538.53;;;19.45;100.00
46614;BME280;32338;50.430;6.806;2023-07-29T11:44:41;67546.84;;;19.57;100.00
46614;BME280;32338;50.430;6.806;2023-07-29T11:47:08;67561.81;;;19.66;100.00
46614;BME280;32338;50.430;6.806;2023-07-29T11:49:36;67605.94;;;20.04;100.00
46614;BME280;32338;50.430;6.806;2023-07-29T11:52:06;67636.59;;;20.32;100.00
46614;BME280;32338;50.430;6.806;2023-07-29T11:54:35;67624.50;;;20.18;100.00
46614;BME280;32338;50.430;6.806;2023-07-29T11:57:03;67590.44;;;19.87;100.00
46614;BME280;32338;50.430;6.806;2023-07-29T11:59:31;67572.44;;;19.73;100.00
46614;BME280;32338;50.430;6.806;2023-07-29T12:02:00;67575.84;;;19.76;100.00
46614;BME280;32338;50.430;6.806;2023-07-29T12:04:27;67596.69;;;19.93;100.00
46614;BME280;32338;50.430;6.806;2023-07-29T12:06:53;67634.13;;;20.34;100.00
46614;BME280;32338;50.430;6.806;2023-07-29T12:09:20;67626.56;;;20.25;100.00
46614;BME280;32338;50.430;6.806;2023-07-29T12:11:49;67651.75;;;20.43;100.00
46614;BME280;32338;50.430;6.806;2023-07-29T12:14:16;67634.34;;;20.30;100.00
46614;BME280;32338;50.430;6.806;2023-07-29T12:16:43;67625.25;;;20.21;100.00
46614;BME280;32338;50.430;6.806;2023-07-29T12:19:12;67637.91;;;20.35;100.00
46614;BME280;32338;50.430;6.806;2023-07-29T12:21:38;67662.72;;;20.55;100.00
46614;BME280;32338;50.430;6.806;2023-07-29T12:24:05;67686.44;;;20.75;100.00
46614;BME280;32338;50.430;6.806;2023-07-29T12:26:32;67685.47;;;20.76;100.00
46614;BME280;32338;50.430;6.806;2023-07-29T12:29:10;67703.09;;;20.92;100.00
46614;BME280;32338;50.430;6.806;2023-07-29T12:31:37;67737.75;;;21.24;100.00
46614;BME280;32338;50.430;6.806;2023-07-29T12:34:04;67792.34;;;21.73;100.00
46614;BME280;32338;50.430;6.806;2023-07-29T12:36:41;67794.06;;;21.75;100.00
46614;BME280;32338;50.430;6.806;2023-07-29T12:39:16;67796.91;;;21.77;100.00
46614;BME280;32338;50.430;6.806;2023-07-29T12:41:42;67756.34;;;21.38;100.00
46614;BME280;32338;50.430;6.806;2023-07-29T12:44:10;67755.94;;;21.40;100.00
46614;BME280;32338;50.430;6.806;2023-07-29T12:46:37;67763.75;;;21.45;100.00
46614;BME280;32338;50.430;6.806;2023-07-29T12:49:03;67764.84;;;21.46;100.00
46614;BME280;32338;50.430;6.806;2023-07-29T12:51:30;67715.03;;;21.03;100.00
46614;BME280;32338;50.430;6.806;2023-07-29T12:53:56;67699.13;;;20.88;100.00
46614;BME280;32338;50.430;6.806;2023-07-29T12:56:23;67697.22;;;20.84;100.00